Terminal Aerodrome Forecast
Issued by NWS

Home | Current Version | Previous Version | Text Only | Print | Product List | Glossary On
Versions: 1 2 3 4 5 6 7 8 9 10 11 12 13 14 15 16 17 18 19 20 21 22
000
FTUS41 KOKX 271745
TAFSWF
TAF
KSWF 271745Z 2718/2824 32007KT P6SM BKN030
     FM272300 33005KT P6SM BKN035
     FM280200 35005KT P6SM SCT040 BKN120
     FM280700 35009KT P6SM BKN150
     FM281000 34010G18KT P6SM VCSH SCT025 BKN035
     FM281600 34008G16KT P6SM VCSH BKN040
     FM282000 34013G19KT P6SM BKN040
      AMD NOT SKED=

USA.gov is the U.S. government's official web portal to all federal, state and local government web resources and services.